Date,TemperatureHighF,TemperatureAvgF,TemperatureLowF,DewpointHighF,DewpointAvgF,DewpointLowF,HumidityHigh,HumidityAvg,HumidityLow,PressureMaxIn,PressureMinIn,WindSpeedMaxMPH,WindSpeedAvgMPH,GustSpeedMaxMPH,PrecipitationSumIn
2013-1-1,17.2,3.7,-10.1,14.8,-0.1,-13.4,90,84,72,30.32,30.08,6,1,6,0.00
2013-1-2,19.5,16.8,14.8,17.3,14.4,11.9,94,90,86,30.09,29.98,9,2,9,0.00
2013-1-3,21.0,15.3,10.2,19.3,11.5,5.2,94,85,67,30.26,30.05,12,3,12,0.00
2013-1-4,31.0,20.6,13.9,20.5,15.5,11.3,91,81,64,30.15,30.01,16,3,16,0.00
2013-1-5,24.8,17.0,10.5,18.2,13.5,8.4,93,86,70,30.12,29.87,9,1,9,0.00
2013-1-6,22.9,17.4,11.4,18.9,12.0,8.8,91,80,61,30.23,30.01,17,2,17,0.00
2013-1-7,36.9,28.1,16.1,27.1,22.6,12.6,88,80,66,30.03,29.87,15,4,17,0.00
2013-1-8,35.5,26.6,16.9,30.0,23.6,15.3,95,88,76,29.98,29.75,18,3,18,0.00
2013-1-9,34.4,29.5,24.8,28.3,23.4,20.4,91,78,65,30.35,29.86,26,6,26,0.00
2013-1-10,42.4,34.0,25.1,32.9,25.9,21.2,96,73,45,30.32,29.74,14,5,14,0.28
2013-1-11,40.2,36.8,33.9,39.9,36.3,32.9,99,98,96,29.74,29.32,13,3,13,0.03
2013-1-12,39.9,16.7,5.2,39.4,12.1,0.6,99,82,72,30.08,29.33,28,9,28,0.00
2013-1-13,6.3,4.3,1.4,2.6,0.5,-1.8,87,84,80,30.27,30.05,11,3,11,0.00
2013-1-14,12.2,5.8,0.2,5.7,1.3,-2.5,89,82,68,30.45,30.27,12,2,12,0.00
2013-1-15,28.0,18.0,7.3,18.7,11.6,4.9,91,77,53,30.32,29.81,12,3,12,0.00
2013-1-16,32.8,24.5,10.1,29.8,16.2,-1.1,94,72,45,30.26,29.63,18,4,18,0.00
2013-1-17,15.2,10.4,7.0,7.2,2.4,-3.9,83,70,57,30.41,30.26,10,2,10,0.00
2013-1-18,38.6,24.8,12.6,31.0,20.8,7.2,94,85,72,30.33,29.73,16,2,16,0.01
2013-1-19,36.4,20.7,1.7,30.5,15.8,-4.1,97,81,61,30.20,29.68,25,6,30,0.00
2013-1-20,4.7,-0.0,-4.3,-1.9,-6.2,-11.6,82,75,64,30.43,30.19,14,4,16,0.00
2013-1-21,-4.3,-9.1,-13.4,-11.8,-16.4,-20.3,76,69,62,30.41,30.31,16,4,16,0.00
2013-1-22,0.4,-7.7,-16.5,-6.6,-13.8,-20.6,81,74,63,30.48,30.31,10,2,10,0.00
2013-1-23,13.3,3.1,-8.3,5.6,-4.7,-16.2,86,70,50,30.69,30.21,16,3,16,0.00
2013-1-24,9.5,-1.8,-10.0,2.0,-9.3,-17.1,72,70,66,30.75,30.23,13,3,13,0.00
2013-1-25,17.0,12.8,5.1,13.5,6.4,-0.6,87,75,64,30.34,29.96,17,4,17,0.00
2013-1-26,21.7,9.7,-3.8,13.6,3.2,-6.9,87,75,64,30.40,30.18,14,2,14,0.00
2013-1-27,32.1,27.3,21.3,28.6,22.1,13.3,97,81,66,30.18,29.82,12,3,12,0.00
2013-1-28,32.8,30.0,26.9,32.0,29.3,26.2,98,97,96,29.91,29.65,11,2,11,0.02
2013-1-29,35.2,31.6,26.1,32.7,29.2,20.7,98,91,79,29.76,29.52,17,2,17,0.07
2013-1-30,26.0,16.3,9.4,20.9,11.0,3.7,88,79,72,29.75,29.65,14,3,15,0.00
2013-1-31,9.4,1.5,-9.0,4.0,-4.5,-15.8,85,76,69,30.30,29.75,10,5,15,0.00
2013-2-1,0.8,-6.5,-15.8,-3.5,-12.6,-20.1,86,74,58,30.37,30.15,10,2,10,0.00
2013-2-2,11.3,4.0,-3.8,5.0,-1.2,-7.0,88,79,61,30.25,30.03,6,0,6,0.00
2013-2-3,13.0,9.0,2.6,5.2,2.9,-1.4,88,76,64,30.11,30.02,11,2,11,0.00
2013-2-4,12.6,7.8,-1.4,9.3,-0.6,-7.5,87,68,57,30.12,29.77,15,2,15,0.00
2013-2-5,26.1,19.6,7.3,21.9,13.8,3.7,92,79,60,30.09,29.67,13,2,13,0.00
2013-2-6,22.9,14.8,5.6,20.4,12.1,2.1,92,89,85,30.13,29.99,13,2,13,0.00
2013-2-7,27.7,24.6,22.5,22.9,21.8,20.3,95,89,80,30.28,30.05,13,4,13,0.00
2013-2-8,26.0,19.8,11.4,20.3,14.0,9.3,94,78,65,30.42,30.26,13,2,13,0.00
2013-2-9,30.9,27.2,16.7,28.5,24.6,11.8,96,90,82,30.26,29.96,17,5,17,0.00
2013-2-10,31.9,28.9,26.0,31.2,27.7,24.6,98,95,90,29.96,29.30,20,6,20,0.00
2013-2-11,31.1,25.3,16.4,30.6,21.4,12.4,98,85,74,30.03,29.32,15,4,15,0.00
2013-2-12,33.1,21.9,9.2,23.5,17.2,7.1,93,82,66,30.03,29.79,12,3,12,0.00
2013-2-13,38.5,28.8,20.3,31.2,24.6,18.0,97,85,66,29.80,29.59,8,1,9,0.08
2013-2-14,30.9,25.2,14.4,30.1,17.2,3.5,97,74,41,30.17,29.62,12,1,12,0.00
2013-2-15,17.6,11.3,3.7,4.7,2.4,-1.9,82,67,53,30.33,30.16,11,2,11,0.00
2013-2-16,19.6,9.3,1.4,5.9,2.0,-1.9,87,73,53,30.28,30.16,3,1,5,0.00
2013-2-17,28.1,18.0,2.0,20.7,11.2,-1.6,85,75,64,30.17,29.67,17,5,17,0.00
2013-2-18,32.0,23.5,8.8,29.2,18.5,2.8,90,81,76,29.79,29.52,18,5,18,0.00
2013-2-19,9.8,4.7,0.3,2.7,-3.5,-7.4,81,68,57,30.40,29.79,19,4,19,0.00
2013-2-20,15.8,5.8,-5.1,4.3,-1.7,-8.9,83,71,59,30.53,30.39,7,1,7,0.00
2013-2-21,23.7,13.5,-0.8,18.0,7.0,-3.8,89,76,58,30.54,30.16,17,3,17,0.00
2013-2-22,27.4,23.0,19.2,24.8,20.7,17.2,95,91,85,30.16,29.86,16,3,16,0.00
2013-2-23,35.3,26.6,18.1,26.0,22.4,16.5,95,85,65,29.95,29.84,7,2,7,0.07
2013-2-24,37.2,23.9,11.3,24.7,18.8,9.2,93,81,59,30.12,29.95,6,1,6,0.01
2013-2-25,37.2,26.4,17.4,24.5,21.1,15.1,95,81,59,30.13,30.06,4,0,4,0.01
2013-2-26,38.9,25.6,12.3,29.1,21.4,10.4,96,85,65,30.09,29.91,17,2,17,0.00
2013-2-27,37.9,31.0,28.1,27.6,25.6,23.2,88,80,63,30.04,29.89,19,4,19,0.00
2013-2-28,30.9,27.6,21.9,24.1,21.1,16.2,87,76,70,30.26,30.03,11,4,13,0.00
2013-3-1,30.2,23.4,14.1,19.1,16.4,10.5,86,75,59,30.39,30.25,18,4,18,0.00
2013-3-2,29.5,18.0,5.0,14.9,10.2,2.5,91,73,46,30.40,30.20,5,0,5,0.00
2013-3-3,31.9,21.6,10.7,10.9,6.3,1.4,85,55,28,30.20,30.04,13,3,13,0.00
2013-3-4,25.8,24.5,22.3,22.7,15.1,2.5,94,69,41,30.08,29.99,18,6,18,0.00
2013-3-5,27.7,24.1,19.3,26.7,22.9,17.9,96,95,94,30.32,30.02,15,4,15,0.00
2013-3-6,27.3,19.2,12.2,20.7,15.9,9.8,95,87,68,30.45,30.32,11,1,11,0.00
2013-3-7,30.9,17.9,-0.1,19.0,11.5,-2.8,93,77,59,30.45,30.32,10,2,12,0.00
2013-3-8,38.9,28.8,17.5,29.2,23.1,14.6,91,79,67,30.36,30.10,9,2,9,0.09
2013-3-9,36.2,34.8,33.1,35.7,33.3,28.5,98,94,80,30.11,29.69,12,3,12,0.17
2013-3-10,34.7,32.7,29.2,33.6,29.5,24.6,98,88,83,29.99,29.78,16,4,16,0.00
2013-3-11,31.7,27.4,24.1,25.1,22.9,20.5,89,83,66,29.89,29.75,16,3,16,0.00
2013-3-12,29.4,23.7,19.1,20.5,16.3,13.5,89,74,53,30.12,29.82,16,3,16,0.00
2013-5-12,56.5,49.6,41.6,21.6,18.0,15.2,42,29,20,30.11,30.08,10,1,10,0.00
2013-5-13,65.8,52.0,34.2,43.4,31.6,19.3,63,47,27,30.10,29.62,22,5,22,0.02
2013-5-14,93.8,69.2,46.0,54.2,45.8,31.8,87,50,13,29.72,29.40,27,5,27,0.00
2013-5-15,80.7,67.9,52.8,48.2,43.4,37.4,75,44,22,29.85,29.60,19,3,19,0.00
2013-5-16,79.3,67.9,53.4,47.3,39.5,28.0,72,39,21,29.90,29.75,25,5,25,0.00
2013-5-17,65.8,60.5,55.4,55.8,46.8,26.7,92,64,23,29.96,29.88,18,7,18,0.01
2013-5-18,79.0,63.8,52.9,66.2,58.6,50.9,98,84,63,29.97,29.75,17,4,17,0.55
2013-5-19,82.0,68.5,60.1,67.0,63.1,59.2,98,84,57,29.77,29.53,31,4,31,0.49
2013-5-20,71.0,61.9,52.3,63.7,58.4,51.3,100,89,68,29.57,29.46,20,3,20,0.91
2013-5-21,52.2,48.3,44.2,51.4,47.1,42.9,98,96,89,29.72,29.50,16,5,16,0.65
2013-5-22,51.2,47.2,42.7,48.3,45.1,41.9,97,92,80,30.01,29.71,17,5,17,0.14
2013-5-23,61.9,51.5,41.3,43.5,34.7,26.2,90,57,29,30.33,30.01,22,4,22,0.00
2013-5-24,67.0,54.0,36.1,50.9,37.8,31.4,89,57,32,30.39,30.18,15,3,15,0.05
2013-5-25,64.5,57.9,52.7,51.8,49.4,46.1,94,75,53,30.25,30.20,17,4,17,0.05
2013-5-26,66.8,58.2,49.3,46.8,41.8,33.8,79,56,33,30.22,30.02,19,4,19,0.00
2013-5-27,61.7,58.0,56.0,53.7,50.0,45.6,87,75,64,30.04,29.82,18,6,18,0.00
2013-5-28,60.3,56.5,52.5,57.4,53.9,51.0,96,91,86,29.83,29.69,12,2,12,0.04
2013-5-29,77.5,65.5,56.9,68.0,60.7,55.8,97,86,58,29.81,29.60,14,3,14,0.02
2013-5-30,78.0,69.2,63.7,66.9,63.9,62.4,97,84,59,29.65,29.46,19,4,19,0.43
2013-5-31,78.0,67.0,60.3,63.4,59.4,55.0,96,78,51,29.51,29.44,17,4,25,1.04
2013-6-1,69.2,59.0,49.9,61.4,54.2,42.3,94,84,71,29.91,29.49,17,1,17,0.14
2013-6-2,67.4,55.8,46.7,48.0,42.7,39.0,87,64,38,30.05,29.91,12,2,15,0.00
2013-6-3,70.0,59.2,45.5,48.8,44.4,39.5,91,61,36,30.04,29.93,8,1,8,0.00
2013-6-4,63.4,57.6,52.2,54.0,47.8,40.7,96,70,53,30.09,29.98,16,4,16,0.35
2013-6-5,55.3,53.5,49.8,54.7,52.6,49.0,98,97,95,30.03,29.93,10,3,10,1.06
2013-6-6,55.4,51.0,47.2,53.1,49.8,46.7,99,96,88,30.03,29.95,8,1,8,0.00
2013-6-7,65.6,56.6,50.1,55.1,51.8,48.2,95,85,64,30.03,29.89,7,0,7,0.00
2013-6-8,70.5,63.1,53.9,57.6,55.0,52.5,95,76,59,29.90,29.86,13,2,13,0.00
2013-6-9,62.8,58.8,56.2,60.5,55.6,52.9,97,89,76,29.88,29.76,20,5,20,0.17
2013-6-10,73.5,63.4,57.4,63.2,60.1,56.8,99,90,68,29.82,29.77,7,1,7,0.00
2013-6-11,79.8,68.5,56.0,69.0,62.4,55.3,98,82,63,29.84,29.75,10,1,10,0.01
2013-6-12,77.3,66.9,58.7,66.7,58.6,51.0,93,76,56,29.89,29.74,16,1,16,0.02
2013-6-13,76.3,67.4,56.0,59.0,53.8,49.9,82,63,45,30.06,29.88,15,2,15,0.00
2013-6-14,77.2,67.0,52.7,62.8,57.0,49.7,91,71,55,30.05,29.83,15,3,15,0.00
2013-6-15,75.8,69.5,63.2,69.8,64.4,57.6,94,84,73,29.85,29.76,11,1,11,0.16
2013-6-16,86.3,72.1,57.5,58.7,52.9,45.8,86,55,26,29.85,29.76,28,4,28,0.00
2013-6-17,77.3,66.9,54.6,62.3,56.6,47.8,92,71,52,30.00,29.78,12,1,12,0.00
2013-6-18,74.5,61.1,45.4,57.8,51.2,43.3,94,71,49,30.08,29.99,12,1,12,0.00
2013-6-19,82.8,71.2,56.5,64.0,59.2,52.2,87,67,49,30.03,29.90,9,2,9,0.00
2013-6-20,86.8,75.2,67.1,71.4,65.9,61.2,89,73,56,29.94,29.84,17,3,17,0.00
2013-6-21,79.4,71.1,63.0,68.4,65.3,62.2,98,83,66,30.01,29.63,35,3,35,1.38
2013-6-22,78.3,70.0,64.2,70.3,66.8,63.4,98,90,75,29.94,29.78,21,2,21,0.23
2013-6-23,82.0,72.2,61.1,70.5,66.4,60.2,98,83,59,29.81,29.61,18,3,18,0.43
2013-6-24,83.8,73.7,62.3,72.1,66.8,61.2,98,80,56,29.84,29.73,8,1,9,0.00
2013-6-25,84.8,74.7,63.8,71.9,67.3,62.5,97,79,54,29.77,29.65,15,2,15,0.00
2013-6-26,87.0,78.0,68.8,77.2,71.9,64.9,97,83,59,29.73,29.59,20,1,20,0.63
2013-6-27,84.7,75.4,64.8,68.7,63.5,58.2,91,69,42,29.73,29.70,15,2,15,0.00
2013-6-28,78.0,68.7,64.1,68.9,62.5,59.4,96,81,61,29.74,29.68,15,2,15,0.24
2013-6-29,75.8,67.2,59.5,64.1,58.4,51.5,98,76,45,29.95,29.70,16,1,16,1.11
2013-6-30,82.3,69.2,55.2,61.0,55.0,50.4,91,64,34,30.07,29.94,9,1,13,0.00
2013-7-1,82.8,71.0,58.8,64.2,58.8,53.4,93,68,37,30.14,30.06,13,0,13,0.00
2013-7-2,81.7,68.7,53.2,57.5,53.9,48.7,89,62,39,30.12,30.01,14,1,14,0.00
2013-7-3,83.9,69.7,53.8,56.5,53.4,47.9,95,60,33,30.03,29.90,9,1,10,0.00
2013-7-4,87.2,74.8,60.2,66.3,60.0,52.5,89,62,37,29.91,29.79,12,2,12,0.00
2013-7-5,87.2,78.3,67.7,66.6,62.8,60.1,77,60,46,29.83,29.72,15,4,15,0.00
2013-7-6,83.8,78.0,71.0,73.3,67.0,63.1,77,69,60,29.80,29.73,9,2,10,0.00
2013-7-7,89.5,79.3,66.9,75.6,70.3,65.6,97,75,59,29.83,29.74,9,1,9,0.08
2013-7-8,81.8,67.4,56.3,71.7,63.8,55.8,98,89,64,29.96,29.82,8,0,9,0.00
2013-7-9,85.4,73.5,66.8,74.9,69.1,62.7,98,87,67,29.92,29.69,22,3,22,0.66
2013-7-10,79.4,70.1,59.3,63.0,59.2,56.1,91,70,45,29.99,29.84,10,1,10,0.00
2013-7-11,83.3,72.0,57.2,65.2,60.8,56.1,97,71,46,30.06,29.91,8,1,9,0.00
2013-7-12,86.2,77.2,68.8,67.3,62.9,58.8,76,62,49,29.96,29.82,19,4,19,0.00
2013-7-13,76.4,71.2,65.6,70.0,66.2,61.1,97,85,62,30.02,29.83,15,2,15,0.24
2013-7-14,85.0,75.3,70.3,71.4,66.6,63.5,85,75,53,30.12,30.00,7,1,7,0.00
2013-7-15,87.3,78.4,66.8,71.8,68.2,65.3,96,73,52,30.17,30.09,8,1,9,0.00
2013-7-16,90.3,82.1,73.8,75.1,72.4,69.3,92,74,54,30.12,30.08,16,2,16,0.00
2013-7-17,91.3,82.4,72.0,74.1,71.2,68.1,91,71,47,30.16,30.02,15,2,16,0.00
2013-7-18,93.0,84.4,74.9,74.7,72.3,71.0,88,68,50,30.02,29.64,15,3,23,0.00
2013-7-19,84.3,78.5,66.7,72.5,66.0,60.8,90,67,48,29.81,29.61,19,3,19,0.07
2013-7-20,76.1,68.6,62.0,63.5,58.5,53.4,97,72,47,29.92,29.78,11,1,13,0.01
2013-7-21,77.8,67.3,54.3,67.2,59.7,49.6,89,77,68,29.92,29.75,11,2,11,0.00
2013-7-22,85.0,73.1,65.9,72.5,64.5,53.9,94,76,48,29.78,29.60,15,2,15,0.00
2013-7-23,75.5,66.0,57.6,56.3,53.7,50.3,88,66,46,29.98,29.78,13,1,13,0.00
2013-7-24,76.7,65.1,55.4,59.6,56.0,50.4,88,73,51,30.04,29.91,7,1,7,0.00
2013-7-25,78.8,69.8,60.9,66.8,62.3,58.6,95,78,57,29.92,29.83,16,2,16,0.64
2013-7-26,66.2,60.1,50.2,61.8,56.0,46.3,97,86,72,30.05,29.83,16,2,16,0.29
2013-7-27,59.3,53.7,49.6,55.0,50.0,46.3,93,87,79,30.04,29.90,12,1,12,0.18
2013-7-28,71.1,59.4,49.5,57.8,52.2,47.0,95,78,60,30.02,29.93,10,1,10,0.00
2013-7-29,76.8,65.0,50.0,60.8,56.2,49.1,98,75,49,30.09,30.02,8,1,8,0.00
2013-7-30,70.5,64.8,59.6,65.0,61.9,58.0,97,90,81,30.07,30.00,5,0,5,0.17
2013-7-31,78.1,67.7,60.4,65.2,59.3,52.7,99,78,43,30.01,29.92,11,2,13,0.02
2013-8-1,78.8,67.5,54.7,61.9,56.5,51.5,89,70,48,29.97,29.80,10,1,10,0.00
2013-8-2,76.4,67.0,57.2,60.0,56.0,51.9,91,70,44,29.99,29.78,7,1,8,0.00
2013-8-3,76.3,65.0,52.0,57.0,52.4,43.0,95,67,33,30.16,29.99,9,1,9,0.00
2013-8-4,76.3,64.1,49.7,59.2,53.8,47.8,95,71,43,30.20,29.97,8,1,8,0.00
2013-8-5,80.5,68.2,59.9,68.6,63.2,56.1,97,85,63,29.97,29.72,11,1,11,0.10
2013-8-6,78.0,65.0,55.1,69.8,60.8,54.0,97,87,70,29.79,29.61,15,1,15,0.63
2013-8-7,76.1,65.5,56.9,61.1,56.3,49.3,98,75,42,29.98,29.72,11,1,11,0.01
2013-8-8,75.4,64.2,51.8,61.8,56.7,50.7,97,79,54,30.00,29.93,13,1,13,0.00
2013-8-9,74.1,64.8,55.4,59.6,55.8,51.4,97,75,48,30.08,29.93,11,1,11,0.00
2013-8-10,74.7,65.5,58.9,59.7,56.1,50.1,91,73,48,30.14,30.04,7,0,7,0.00
2013-8-11,80.5,67.1,54.6,63.2,58.3,53.0,97,76,49,30.06,29.94,5,0,6,0.00
2013-8-12,79.7,68.1,58.4,61.3,58.5,53.8,95,74,43,30.03,29.94,10,1,10,0.00
2013-8-13,75.4,63.2,50.3,56.5,52.0,48.0,97,70,40,30.15,30.04,7,1,9,0.00
2013-8-14,76.7,65.0,52.7,56.7,52.1,48.0,86,66,40,30.16,30.04,9,1,9,0.00
2013-8-15,78.8,67.1,53.2,63.2,56.8,51.0,94,71,49,30.08,30.01,10,1,12,0.00
2013-8-16,80.1,68.2,55.4,63.4,58.1,54.3,96,73,47,30.13,30.07,11,1,11,0.00
2013-8-17,81.5,68.9,54.9,61.3,56.5,53.1,97,68,41,30.15,30.04,13,1,13,0.00
2013-8-18,82.8,70.9,57.3,61.3,58.1,54.7,92,66,43,30.08,29.93,14,2,14,0.00
2013-8-19,86.2,75.2,66.4,69.8,65.4,60.2,83,72,55,29.95,29.82,10,2,10,0.00
2013-8-20,90.0,78.9,68.6,74.1,70.4,65.5,90,76,58,29.85,29.77,11,2,11,0.00
2013-8-21,87.8,77.4,69.0,76.5,70.1,60.1,95,79,50,29.95,29.75,9,1,9,0.00
2013-8-22,84.5,72.3,62.0,60.3,52.7,47.2,85,53,30,30.08,29.94,14,1,14,0.00
2013-8-23,86.8,71.1,52.7,67.1,57.3,48.8,89,64,40,30.11,29.97,9,1,9,0.00
2013-8-24,89.7,78.8,69.9,73.7,69.3,64.4,87,74,55,30.02,29.84,19,4,19,0.00
2013-8-25,96.0,85.4,77.6,76.4,73.7,71.1,81,69,49,29.93,29.82,14,3,14,0.00
2013-8-26,95.5,85.4,77.8,77.7,75.5,73.8,90,74,53,29.89,29.72,11,2,11,0.00
2013-8-27,90.5,80.9,72.1,77.0,74.4,69.6,95,81,61,29.85,29.70,10,1,10,0.00
2013-8-28,86.7,76.2,66.3,73.1,67.4,63.7,98,77,48,29.95,29.85,10,1,10,0.00
2013-8-29,92.8,80.4,69.2,76.8,71.7,66.1,96,76,48,29.95,29.75,13,2,13,0.00
2013-8-30,83.0,75.4,66.7,72.0,66.3,60.9,92,74,52,29.87,29.74,20,2,20,0.00
2013-8-31,87.7,72.8,60.2,69.8,64.3,59.2,98,77,52,29.85,29.63,11,1,22,0.03
2013-9-1,72.4,67.4,59.5,63.2,60.4,53.0,94,79,67,29.93,29.67,9,2,14,0.00
2013-9-2,69.5,59.2,52.1,54.2,51.7,49.5,93,77,57,30.06,29.93,8,1,8,0.00
2013-9-3,77.3,61.7,45.8,59.4,53.9,45.1,99,78,49,30.06,29.93,12,1,12,0.00
2013-9-4,79.5,67.7,58.1,65.9,60.3,56.2,96,79,53,30.12,29.96,11,1,11,0.00
2013-9-5,82.6,67.6,51.9,62.8,55.9,49.9,96,69,36,30.20,30.05,10,1,10,0.00
2013-9-6,91.0,78.4,66.8,70.0,66.0,62.0,94,69,39,30.05,29.79,9,2,13,0.00
2013-9-7,90.2,77.6,64.3,71.5,66.8,59.3,91,71,49,29.99,29.78,17,2,17,0.00
2013-9-8,66.2,62.0,59.0,59.9,56.5,51.7,96,83,60,30.03,29.85,18,2,18,0.46
2013-9-9,88.7,72.1,60.9,76.6,69.1,59.7,98,91,63,29.85,29.57,11,1,11,0.06
2013-9-10,82.7,72.1,64.9,71.5,65.8,60.4,97,82,49,29.92,29.67,15,2,15,0.03
2013-9-11,81.9,70.8,60.5,64.8,58.5,52.0,96,69,37,30.00,29.91,8,2,10,0.00
2013-9-12,71.8,61.5,53.2,56.4,51.0,46.0,93,70,46,30.20,29.99,13,1,13,0.00
2013-9-13,69.3,55.6,42.1,49.7,45.6,41.0,98,72,44,30.26,30.05,10,0,10,0.00
2013-9-14,70.5,57.3,47.1,58.3,50.3,44.3,98,80,49,30.05,29.88,9,2,9,0.82
2013-9-15,61.3,55.9,44.9,57.9,53.2,43.6,98,91,69,30.30,29.88,8,1,11,0.21
2013-9-16,65.8,51.4,36.1,46.0,40.9,35.6,99,72,37,30.41,30.23,11,1,11,0.02
2013-9-17,68.8,56.1,43.9,56.3,49.8,41.8,96,80,60,30.24,29.92,15,2,15,0.02
2013-9-18,70.9,65.1,57.5,67.8,63.7,56.4,99,95,89,29.92,29.65,6,1,10,0.02
2013-9-19,74.5,69.2,62.2,71.2,67.1,61.2,99,93,81,29.72,29.53,25,2,42,1.09
2013-9-20,64.6,57.7,48.9,61.4,53.8,47.0,97,88,61,29.88,29.69,9,2,13,0.09
2013-9-21,63.7,52.7,45.5,48.4,46.1,43.8,96,80,55,29.96,29.88,8,1,8,0.01
2013-9-22,69.5,55.7,41.0,54.6,48.6,39.8,97,79,56,29.98,29.84,15,3,15,0.00
2013-9-23,72.0,61.5,52.5,55.1,52.4,49.0,88,73,52,29.93,29.85,18,3,18,0.00
2013-9-24,76.0,61.7,50.7,56.6,52.6,49.0,94,74,46,29.95,29.88,13,1,13,0.00
2013-9-25,73.5,60.7,48.8,57.4,52.3,47.4,96,76,51,29.94,29.84,9,1,9,0.00
2013-9-26,78.1,65.6,54.2,62.2,56.7,49.8,90,74,56,29.91,29.80,17,3,17,0.00
2013-9-27,80.8,71.6,64.1,65.0,62.0,58.3,82,72,56,29.87,29.74,20,3,20,0.00
2013-9-28,72.4,61.6,47.1,62.9,55.4,45.0,95,81,67,29.87,29.55,25,4,27,0.28
2013-9-29,74.3,58.6,44.1,52.9,47.4,42.5,95,70,39,29.92,29.74,10,2,10,0.01
2013-9-30,78.0,66.3,57.2,56.0,52.0,48.3,74,61,45,29.74,29.55,14,4,14,0.00
2013-10-1,73.4,65.3,53.7,54.8,45.7,34.2,76,52,26,29.92,29.50,22,4,22,0.00
2013-10-2,74.7,57.6,42.2,53.0,44.0,37.6,95,66,27,30.01,29.84,17,2,17,0.34
2013-10-3,56.0,54.2,53.2,55.5,53.4,52.2,98,97,95,29.93,29.83,15,2,15,0.17
2013-10-4,58.7,55.2,53.4,54.5,53.2,52.1,98,93,85,30.00,29.85,20,4,20,0.11
2013-10-5,59.1,55.1,49.5,58.8,54.6,48.6,99,98,96,29.88,29.67,21,3,21,0.56
2013-10-6,52.2,48.9,42.6,50.9,48.1,42.3,99,97,89,29.80,29.64,11,0,11,0.06
2013-10-7,65.8,51.8,41.4,49.9,43.7,38.2,99,77,39,29.95,29.79,9,1,9,0.01
2013-10-8,75.8,61.9,48.4,50.7,47.0,43.3,84,61,38,29.94,29.76,20,3,20,0.00
2013-10-9,75.0,64.5,55.8,55.9,51.7,48.7,80,64,46,30.00,29.87,12,2,12,0.00
2013-10-10,75.2,62.5,52.4,54.9,50.7,46.3,82,67,46,30.00,29.85,16,2,16,0.00
2013-10-11,73.7,65.4,55.5,57.7,54.3,50.8,87,68,52,29.86,29.57,26,5,26,0.00
2013-10-12,61.6,51.1,43.7,59.2,45.7,41.8,93,82,66,30.12,29.61,21,4,21,0.02
2013-10-13,59.7,47.4,37.4,42.5,38.2,34.1,96,74,41,30.41,30.12,7,1,7,0.01
2013-10-14,54.9,46.1,37.0,46.3,39.0,34.8,93,78,52,30.40,30.00,17,3,17,0.10
2013-10-15,50.3,48.3,44.9,50.0,47.4,43.9,99,97,92,30.00,29.64,26,4,26,0.86
2013-10-16,54.6,45.6,38.7,44.1,40.4,36.1,97,83,55,29.93,29.81,13,1,13,0.00
2013-10-17,55.9,44.6,37.2,46.7,41.1,35.3,95,88,62,29.86,29.75,10,0,10,0.05
2013-10-18,52.2,43.0,37.3,40.8,37.3,30.8,97,82,46,29.94,29.81,14,1,14,0.20
2013-10-19,48.2,39.6,33.6,39.7,35.9,30.2,97,87,51,29.82,29.67,10,1,10,0.05
2013-10-20,35.2,33.1,30.0,34.6,32.5,29.2,98,97,95,29.85,29.65,7,1,7,0.01
2013-10-21,38.1,34.3,30.2,34.0,26.3,22.2,97,73,60,29.94,29.85,19,3,19,0.01
2013-10-22,40.8,34.0,28.0,32.5,29.1,25.6,94,83,68,30.03,29.94,8,0,8,0.00
2013-10-23,37.9,33.2,29.5,31.6,27.8,23.2,95,81,63,30.10,29.99,9,1,9,0.00
2013-10-24,43.1,36.8,31.9,31.7,28.6,24.0,84,72,59,30.30,30.09,11,1,11,0.00
2013-10-25,55.4,43.1,29.5,44.7,35.1,27.8,94,74,59,30.30,29.73,13,3,13,0.00
2013-10-26,50.5,41.9,38.0,41.7,32.5,30.1,77,69,59,30.07,29.74,14,2,14,0.00
2013-10-27,55.9,41.4,30.3,36.7,31.3,27.3,91,69,48,30.17,29.80,15,2,15,0.00
2013-10-28,41.1,34.4,28.4,31.4,24.7,18.9,88,69,41,30.46,30.17,20,3,20,0.00
2013-10-29,37.0,33.2,27.3,34.3,29.3,24.8,94,85,69,30.45,30.12,9,2,13,0.00
2013-10-30,47.9,42.0,35.8,47.6,41.4,34.2,99,98,94,30.12,29.66,10,1,10,0.08
2013-10-31,47.8,43.3,39.6,47.5,42.8,39.1,99,98,97,29.66,29.36,9,2,11,0.07
2013-11-1,48.4,41.3,36.8,40.3,37.5,32.2,98,87,70,29.83,29.36,10,1,10,0.01
2013-11-2,48.9,39.4,32.5,35.8,31.7,28.4,87,75,51,30.09,29.82,9,1,9,0.00
2013-11-3,52.2,42.5,32.2,37.0,33.1,29.0,89,71,53,30.12,29.90,23,4,23,0.00
2013-11-4,48.1,44.2,34.0,44.5,38.1,32.5,95,80,62,30.12,29.80,18,4,18,0.11
2013-11-5,42.7,34.4,28.4,33.7,31.0,27.4,97,88,61,30.24,30.05,7,0,7,0.25
2013-11-6,39.8,32.3,28.4,31.7,28.8,26.8,97,87,60,30.16,30.02,12,1,12,0.08
2013-11-7,39.2,30.1,22.6,31.2,27.1,21.6,97,89,62,30.24,30.16,11,1,11,0.01
2013-11-8,41.2,33.0,23.1,38.0,28.8,22.2,97,85,65,30.20,29.58,17,3,17,0.18
2013-11-9,41.8,39.6,37.2,39.0,34.1,28.6,95,81,67,30.16,29.59,25,6,25,0.00
2013-11-10,40.9,37.2,31.6,31.9,30.1,27.1,85,76,67,30.31,30.08,15,2,15,0.00
2013-11-11,35.9,22.3,13.9,31.5,13.7,8.3,85,69,54,30.74,30.11,17,2,17,0.00
2013-11-12,28.6,19.4,10.8,14.3,10.3,6.5,85,69,45,30.80,30.46,13,2,13,0.00
2013-11-13,49.5,34.8,19.9,34.2,25.3,14.2,82,69,49,30.46,29.85,18,4,18,0.00
2013-11-14,51.1,40.8,34.9,38.7,34.9,31.8,91,80,61,29.85,29.72,8,1,8,0.00
2013-11-15,54.9,41.5,30.0,40.7,35.9,28.9,97,82,56,29.83,29.62,11,2,11,0.00
2013-11-16,45.7,43.9,41.9,45.3,41.4,36.1,99,91,76,29.62,29.23,16,3,16,0.15
2013-11-17,44.8,39.4,29.8,44.2,36.6,24.4,99,90,79,29.77,29.26,25,5,25,0.01
2013-11-18,31.2,26.5,18.7,24.5,21.0,16.9,94,80,68,30.28,29.77,21,3,21,0.00
2013-11-19,44.4,31.5,17.5,30.8,24.1,16.0,95,76,56,30.30,29.92,21,5,21,0.00
2013-11-20,44.6,41.6,35.6,34.2,30.1,26.0,94,65,49,30.04,29.89,20,5,20,0.00
2013-11-21,36.6,30.7,22.7,36.1,26.4,15.3,98,84,68,30.53,30.03,15,2,15,0.00
2013-11-22,32.5,21.5,11.6,18.7,11.0,1.4,89,66,30,30.66,30.44,20,3,20,0.00
2013-11-23,18.2,11.3,5.0,6.2,2.2,-0.8,79,67,46,30.86,30.65,13,2,13,0.00
2013-11-24,30.1,18.9,3.1,19.0,9.6,-1.1,86,68,50,30.75,29.96,16,5,22,0.00
2013-11-25,38.7,33.1,28.6,29.0,24.1,17.6,85,70,59,30.07,29.87,18,6,18,0.00
2013-11-26,28.6,18.8,11.2,20.4,9.6,4.4,79,67,55,30.41,30.07,14,4,14,0.00
2013-11-27,22.9,15.8,4.8,12.9,8.6,2.3,90,74,60,30.42,30.11,9,1,9,0.00
2013-11-28,25.9,20.9,10.5,16.1,12.6,7.2,89,70,60,30.54,30.11,9,1,9,0.00
2013-11-29,30.7,21.1,7.7,22.3,14.9,5.6,92,77,64,30.56,30.17,23,3,23,0.00
2013-11-30,38.3,30.3,24.7,28.0,24.3,21.5,89,79,65,30.19,30.03,7,1,10,0.00
2013-12-1,33.2,25.7,18.2,26.9,22.7,16.4,95,88,76,30.21,29.95,3,0,3,0.00
2013-12-2,35.7,30.8,24.7,33.1,29.0,22.5,98,93,89,29.95,29.62,13,3,13,0.01
2013-12-3,33.9,32.9,29.4,33.7,32.3,27.6,99,97,93,29.83,29.62,15,4,15,0.21
2013-12-4,29.4,26.7,17.6,28.5,25.4,14.1,98,95,86,29.81,29.43,17,4,17,0.00
2013-12-5,17.6,5.4,-3.4,13.7,0.3,-7.5,86,79,72,30.36,29.62,20,7,20,0.00
2013-12-6,2.2,-4.7,-11.0,-4.5,-9.3,-15.1,86,80,70,30.70,30.36,12,2,12,0.00
2013-12-7,-0.6,-8.9,-15.9,-8.3,-13.5,-19.6,86,80,68,30.79,30.66,9,1,9,0.00
2013-12-8,9.1,1.1,-10.6,5.8,-1.8,-13.9,91,87,84,30.67,30.10,9,2,9,0.00
2013-12-9,6.2,-1.3,-6.7,3.9,-5.6,-10.7,91,82,69,30.14,29.95,17,3,17,0.00
2013-12-10,6.3,1.2,-5.8,-0.5,-3.2,-9.2,88,81,70,30.34,29.85,15,2,15,0.00
2013-12-11,0.1,-5.4,-11.8,-5.1,-11.0,-16.2,83,76,63,30.62,30.34,11,2,11,0.00
2013-12-12,14.9,7.0,-3.6,10.2,2.2,-6.5,88,81,70,30.38,30.21,8,0,8,0.00
2013-12-13,13.4,9.8,7.5,8.9,5.4,3.6,87,82,77,30.37,30.21,17,5,17,0.00
2013-12-14,13.1,8.0,-0.7,8.2,4.3,-4.9,88,85,79,30.37,30.11,12,2,12,0.00
2013-12-15,0.1,-3.9,-8.8,-5.0,-10.2,-13.9,83,74,60,30.23,30.13,8,1,8,0.00
2013-12-16,18.0,6.2,-5.2,16.1,2.2,-11.2,94,83,72,30.22,29.90,14,2,14,0.00
2013-12-17,30.5,21.1,4.0,28.1,15.7,0.8,94,80,66,30.13,29.86,17,4,17,0.00
2013-12-18,32.7,20.0,3.8,23.9,15.1,0.5,93,82,68,30.10,29.66,17,2,17,0.00
2013-12-19,22.5,15.5,11.9,20.0,11.0,6.9,90,82,75,30.13,29.83,13,3,17,0.00
2013-12-20,19.0,12.9,7.3,13.2,9.5,4.8,91,86,77,30.10,29.89,9,1,9,0.00
2013-12-21,20.4,16.2,11.5,16.1,12.8,8.9,90,86,82,30.06,29.89,7,0,7,0.00
2013-12-22,19.0,15.9,9.5,16.4,13.1,6.9,91,89,83,30.24,29.98,10,1,10,0.00
2013-12-23,9.4,0.4,-8.7,6.8,-3.2,-11.8,89,85,80,30.56,30.24,5,1,10,0.00
2013-12-24,9.2,-1.5,-15.7,6.4,-5.6,-19.3,89,82,68,30.55,30.20,9,2,11,0.00
2013-12-25,20.8,14.0,8.7,17.7,10.7,5.4,91,86,77,30.20,30.08,12,1,12,0.00
2013-12-26,20.0,15.9,10.5,16.8,12.8,7.2,93,87,83,30.20,30.12,3,0,4,0.00
2013-12-27,38.2,26.4,12.6,31.1,23.6,11.0,97,89,74,30.20,29.87,17,3,17,0.04
2013-12-28,37.6,28.5,15.7,34.8,27.2,12.0,98,95,84,30.04,29.67,21,2,21,0.04
2013-12-29,15.8,-2.7,-16.3,12.3,-9.9,-21.4,86,71,57,30.36,30.04,16,2,17,0.00
2013-12-30,-3.0,-10.4,-18.6,-7.0,-14.3,-22.6,87,82,77,30.37,30.29,5,0,5,0.00
2013-12-31,-4.0,-9.6,-14.4,-7.5,-14.1,-18.5,86,80,68,30.53,30.28,4,0,5,0.00
2014-1-1,-1.2,-6.3,-12.7,-7.8,-12.2,-17.6,78,75,71,30.61,30.52,5,1,8,0.00
2014-1-2,1.5,-8.5,-15.8,-10.6,-16.0,-19.9,82,70,50,30.60,30.44,6,0,6,0.00